sensor_id;sensor_type;location;lat;lon;timestamp;pressure;altitude;pressure_sealevel;temperature
4421;BMP180;11824;51.178;13.546;2024-03-17T00:01:23;100917.00;;;4.40
4421;BMP180;11824;51.178;13.546;2024-03-17T00:03:51;100918.00;;;4.30
4421;BMP180;11824;51.178;13.546;2024-03-17T00:06:18;100921.00;;;4.30
4421;BMP180;11824;51.178;13.546;2024-03-17T00:08:47;100925.00;;;4.20
4421;BMP180;11824;51.178;13.546;2024-03-17T00:11:14;100933.00;;;4.20
4421;BMP180;11824;51.178;13.546;2024-03-17T00:13:41;100932.00;;;4.20
4421;BMP180;11824;51.178;13.546;2024-03-17T00:16:08;100925.00;;;4.10
4421;BMP180;11824;51.178;13.546;2024-03-17T00:18:36;100928.00;;;4.10
4421;BMP180;11824;51.178;13.546;2024-03-17T00:21:03;100916.00;;;4.00
4421;BMP180;11824;51.178;13.546;2024-03-17T00:23:31;100927.00;;;4.00
4421;BMP180;11824;51.178;13.546;2024-03-17T00:25:59;100925.00;;;4.00
4421;BMP180;11824;51.178;13.546;2024-03-17T00:28:27;100918.00;;;4.00
4421;BMP180;11824;51.178;13.546;2024-03-17T00:30:54;100913.00;;;3.90
4421;BMP180;11824;51.178;13.546;2024-03-17T00:33:21;100923.00;;;3.90
4421;BMP180;11824;51.178;13.546;2024-03-17T00:35:48;100919.00;;;3.90
4421;BMP180;11824;51.178;13.546;2024-03-17T00:38:16;100924.00;;;3.90
4421;BMP180;11824;51.178;13.546;2024-03-17T00:40:43;100934.00;;;3.80
4421;BMP180;11824;51.178;13.546;2024-03-17T00:43:13;100924.00;;;3.80
4421;BMP180;11824;51.178;13.546;2024-03-17T00:45:39;100922.00;;;3.80
4421;BMP180;11824;51.178;13.546;2024-03-17T00:48:07;100927.00;;;3.70
4421;BMP180;11824;51.178;13.546;2024-03-17T00:50:34;100926.00;;;3.70
4421;BMP180;11824;51.178;13.546;2024-03-17T00:53:02;100914.00;;;3.70
4421;BMP180;11824;51.178;13.546;2024-03-17T00:55:30;100917.00;;;3.70
4421;BMP180;11824;51.178;13.546;2024-03-17T00:57:58;100922.00;;;3.60
4421;BMP180;11824;51.178;13.546;2024-03-17T01:00:27;100914.00;;;3.60
4421;BMP180;11824;51.178;13.546;2024-03-17T01:02:55;100925.00;;;3.60
4421;BMP180;11824;51.178;13.546;2024-03-17T01:05:22;100932.00;;;3.60
4421;BMP180;11824;51.178;13.546;2024-03-17T01:07:50;100930.00;;;3.50
4421;BMP180;11824;51.178;13.546;2024-03-17T01:10:18;100924.00;;;3.50
4421;BMP180;11824;51.178;13.546;2024-03-17T01:12:44;100924.00;;;3.50
4421;BMP180;11824;51.178;13.546;2024-03-17T01:15:12;100917.00;;;3.40
4421;BMP180;11824;51.178;13.546;2024-03-17T01:17:40;100916.00;;;3.40
4421;BMP180;11824;51.178;13.546;2024-03-17T01:20:09;100926.00;;;3.40
4421;BMP180;11824;51.178;13.546;2024-03-17T01:22:36;100917.00;;;3.40
4421;BMP180;11824;51.178;13.546;2024-03-17T01:25:04;100918.00;;;3.30
4421;BMP180;11824;51.178;13.546;2024-03-17T01:27:32;100918.00;;;3.30
4421;BMP180;11824;51.178;13.546;2024-03-17T01:30:00;100914.00;;;3.30
4421;BMP180;11824;51.178;13.546;2024-03-17T01:32:27;100922.00;;;3.20
4421;BMP180;11824;51.178;13.546;2024-03-17T01:34:56;100920.00;;;3.20
4421;BMP180;11824;51.178;13.546;2024-03-17T01:37:23;100914.00;;;3.10
4421;BMP180;11824;51.178;13.546;2024-03-17T01:39:51;100916.00;;;3.10
4421;BMP180;11824;51.178;13.546;2024-03-17T01:42:17;100929.00;;;3.10
4421;BMP180;11824;51.178;13.546;2024-03-17T01:44:46;100922.00;;;3.10
4421;BMP180;11824;51.178;13.546;2024-03-17T01:47:13;100922.00;;;3.00
4421;BMP180;11824;51.178;13.546;2024-03-17T01:49:41;100910.00;;;3.00
4421;BMP180;11824;51.178;13.546;2024-03-17T01:52:09;100932.00;;;3.00
4421;BMP180;11824;51.178;13.546;2024-03-17T01:54:37;100921.00;;;3.10
4421;BMP180;11824;51.178;13.546;2024-03-17T01:57:05;100924.00;;;3.10
4421;BMP180;11824;51.178;13.546;2024-03-17T01:59:32;100920.00;;;3.10
4421;BMP180;11824;51.178;13.546;2024-03-17T02:02:00;100912.00;;;3.20
4421;BMP180;11824;51.178;13.546;2024-03-17T02:04:27;100909.00;;;3.20
4421;BMP180;11824;51.178;13.546;2024-03-17T02:06:55;100924.00;;;3.20
4421;BMP180;11824;51.178;13.546;2024-03-17T02:09:23;100918.00;;;3.20
4421;BMP180;11824;51.178;13.546;2024-03-17T02:11:51;100921.00;;;3.20
4421;BMP180;11824;51.178;13.546;2024-03-17T02:14:18;100920.00;;;3.20
4421;BMP180;11824;51.178;13.546;2024-03-17T02:16:47;100917.00;;;3.20
4421;BMP180;11824;51.178;13.546;2024-03-17T02:19:14;100916.00;;;3.20
4421;BMP180;11824;51.178;13.546;2024-03-17T02:21:42;100923.00;;;3.20
4421;BMP180;11824;51.178;13.546;2024-03-17T02:24:10;100922.00;;;3.20
4421;BMP180;11824;51.178;13.546;2024-03-17T02:26:38;100910.00;;;3.30
4421;BMP180;11824;51.178;13.546;2024-03-17T02:29:05;100915.00;;;3.30
4421;BMP180;11824;51.178;13.546;2024-03-17T02:31:32;100914.00;;;3.30
4421;BMP180;11824;51.178;13.546;2024-03-17T02:33:59;100920.00;;;3.30
4421;BMP180;11824;51.178;13.546;2024-03-17T02:36:27;100908.00;;;3.20
4421;BMP180;11824;51.178;13.546;2024-03-17T02:38:54;100910.00;;;3.20
4421;BMP180;11824;51.178;13.546;2024-03-17T02:41:42;100907.00;;;3.10
4421;BMP180;11824;51.178;13.546;2024-03-17T02:44:10;100904.00;;;3.10
4421;BMP180;11824;51.178;13.546;2024-03-17T02:46:38;100905.00;;;3.00
4421;BMP180;11824;51.178;13.546;2024-03-17T02:49:06;100909.00;;;3.00
4421;BMP180;11824;51.178;13.546;2024-03-17T02:51:35;100901.00;;;3.00
4421;BMP180;11824;51.178;13.546;2024-03-17T02:54:02;100913.00;;;2.90
4421;BMP180;11824;51.178;13.546;2024-03-17T02:56:32;100907.00;;;2.90
4421;BMP180;11824;51.178;13.546;2024-03-17T02:59:01;100915.00;;;2.90
4421;BMP180;11824;51.178;13.546;2024-03-17T03:01:29;100908.00;;;2.90
4421;BMP180;11824;51.178;13.546;2024-03-17T03:03:57;100912.00;;;2.90
4421;BMP180;11824;51.178;13.546;2024-03-17T03:06:24;100904.00;;;2.80
4421;BMP180;11824;51.178;13.546;2024-03-17T03:08:52;100905.00;;;2.80
4421;BMP180;11824;51.178;13.546;2024-03-17T03:11:20;100908.00;;;2.80
4421;BMP180;11824;51.178;13.546;2024-03-17T03:13:48;100913.00;;;2.80
4421;BMP180;11824;51.178;13.546;2024-03-17T03:16:17;100911.00;;;2.70
4421;BMP180;11824;51.178;13.546;2024-03-17T03:18:45;100909.00;;;2.70
4421;BMP180;11824;51.178;13.546;2024-03-17T03:21:13;100914.00;;;2.70
4421;BMP180;11824;51.178;13.546;2024-03-17T03:23:42;100906.00;;;2.70
4421;BMP180;11824;51.178;13.546;2024-03-17T03:26:12;100911.00;;;2.70
4421;BMP180;11824;51.178;13.546;2024-03-17T03:28:41;100908.00;;;2.70
4421;BMP180;11824;51.178;13.546;2024-03-17T03:31:11;100907.00;;;2.80
4421;BMP180;11824;51.178;13.546;2024-03-17T03:33:42;100911.00;;;2.80
4421;BMP180;11824;51.178;13.546;2024-03-17T03:36:11;100911.00;;;2.90
4421;BMP180;11824;51.178;13.546;2024-03-17T03:38:39;100907.00;;;2.90
4421;BMP180;11824;51.178;13.546;2024-03-17T03:41:08;100912.00;;;3.00
4421;BMP180;11824;51.178;13.546;2024-03-17T03:43:36;100909.00;;;3.00
4421;BMP180;11824;51.178;13.546;2024-03-17T03:46:04;100910.00;;;3.00
4421;BMP180;11824;51.178;13.546;2024-03-17T03:48:32;100919.00;;;3.00
4421;BMP180;11824;51.178;13.546;2024-03-17T03:51:05;100912.00;;;3.00
4421;BMP180;11824;51.178;13.546;2024-03-17T03:53:33;100917.00;;;3.00
4421;BMP180;11824;51.178;13.546;2024-03-17T03:56:03;100922.00;;;2.90
4421;BMP180;11824;51.178;13.546;2024-03-17T03:58:33;100920.00;;;2.90
4421;BMP180;11824;51.178;13.546;2024-03-17T04:01:03;100929.00;;;2.90
4421;BMP180;11824;51.178;13.546;2024-03-17T04:03:32;100917.00;;;2.90
4421;BMP180;11824;51.178;13.546;2024-03-17T04:06:06;100924.00;;;2.80
4421;BMP180;11824;51.178;13.546;2024-03-17T04:08:35;100918.00;;;2.80
4421;BMP180;11824;51.178;13.546;2024-03-17T04:11:04;100927.00;;;2.80
4421;BMP180;11824;51.178;13.546;2024-03-17T04:13:32;100921.00;;;2.70
4421;BMP180;11824;51.178;13.546;2024-03-17T04:16:00;100920.00;;;2.70
4421;BMP180;11824;51.178;13.546;2024-03-17T04:18:29;100935.00;;;2.60
4421;BMP180;11824;51.178;13.546;2024-03-17T04:20:58;100927.00;;;2.60
4421;BMP180;11824;51.178;13.546;2024-03-17T04:23:30;100924.00;;;2.60
4421;BMP180;11824;51.178;13.546;2024-03-17T04:25:59;100934.00;;;2.60
4421;BMP180;11824;51.178;13.546;2024-03-17T04:28:26;100932.00;;;2.50
4421;BMP180;11824;51.178;13.546;2024-03-17T04:31:03;100936.00;;;2.50
4421;BMP180;11824;51.178;13.546;2024-03-17T04:33:31;100936.00;;;2.50
4421;BMP180;11824;51.178;13.546;2024-03-17T04:35:59;100925.00;;;2.40
4421;BMP180;11824;51.178;13.546;2024-03-17T04:38:26;100933.00;;;2.40
4421;BMP180;11824;51.178;13.546;2024-03-17T04:40:56;100926.00;;;2.40
4421;BMP180;11824;51.178;13.546;2024-03-17T04:43:31;100933.00;;;2.40
4421;BMP180;11824;51.178;13.546;2024-03-17T04:46:04;100935.00;;;2.30
4421;BMP180;11824;51.178;13.546;2024-03-17T04:48:33;100931.00;;;2.30
4421;BMP180;11824;51.178;13.546;2024-03-17T04:51:01;100924.00;;;2.30
4421;BMP180;11824;51.178;13.546;2024-03-17T04:53:29;100942.00;;;2.30
4421;BMP180;11824;51.178;13.546;2024-03-17T04:56:03;100937.00;;;2.20
4421;BMP180;11824;51.178;13.546;2024-03-17T04:58:32;100949.00;;;2.20
4421;BMP180;11824;51.178;13.546;2024-03-17T05:01:04;100942.00;;;2.20
4421;BMP180;11824;51.178;13.546;2024-03-17T05:03:32;100942.00;;;2.20
4421;BMP180;11824;51.178;13.546;2024-03-17T05:06:01;100947.00;;;2.20
4421;BMP180;11824;51.178;13.546;2024-03-17T05:08:29;100949.00;;;2.20
4421;BMP180;11824;51.178;13.546;2024-03-17T05:10:58;100953.00;;;2.20
4421;BMP180;11824;51.178;13.546;2024-03-17T05:13:27;100957.00;;;2.20
4421;BMP180;11824;51.178;13.546;2024-03-17T05:15:55;100960.00;;;2.20
4421;BMP180;11824;51.178;13.546;2024-03-17T05:18:24;100955.00;;;2.20
4421;BMP180;11824;51.178;13.546;2024-03-17T05:20:58;100963.00;;;2.20
4421;BMP180;11824;51.178;13.546;2024-03-17T05:23:28;100961.00;;;2.30
4421;BMP180;11824;51.178;13.546;2024-03-17T05:25:56;100961.00;;;2.30
4421;BMP180;11824;51.178;13.546;2024-03-17T05:28:25;100958.00;;;2.40
4421;BMP180;11824;51.178;13.546;2024-03-17T05:30:55;100966.00;;;2.50
4421;BMP180;11824;51.178;13.546;2024-03-17T05:33:24;100959.00;;;2.50
4421;BMP180;11824;51.178;13.546;2024-03-17T05:35:53;100954.00;;;2.60
4421;BMP180;11824;51.178;13.546;2024-03-17T05:38:22;100961.00;;;2.60
4421;BMP180;11824;51.178;13.546;2024-03-17T05:40:57;100974.00;;;2.70
4421;BMP180;11824;51.178;13.546;2024-03-17T05:43:27;100975.00;;;2.70
4421;BMP180;11824;51.178;13.546;2024-03-17T05:45:58;100967.00;;;2.80
4421;BMP180;11824;51.178;13.546;2024-03-17T05:48:26;100972.00;;;2.80
4421;BMP180;11824;51.178;13.546;2024-03-17T05:50:53;100972.00;;;2.90
4421;BMP180;11824;51.178;13.546;2024-03-17T05:53:22;100970.00;;;2.90
4421;BMP180;11824;51.178;13.546;2024-03-17T05:55:51;100967.00;;;2.90
4421;BMP180;11824;51.178;13.546;2024-03-17T05:58:19;100979.00;;;2.90
4421;BMP180;11824;51.178;13.546;2024-03-17T06:00:47;100987.00;;;3.00
4421;BMP180;11824;51.178;13.546;2024-03-17T06:03:16;100988.00;;;3.00
4421;BMP180;11824;51.178;13.546;2024-03-17T06:05:44;100988.00;;;3.10
4421;BMP180;11824;51.178;13.546;2024-03-17T06:08:12;100982.00;;;3.20
4421;BMP180;11824;51.178;13.546;2024-03-17T06:10:44;100988.00;;;3.30
4421;BMP180;11824;51.178;13.546;2024-03-17T06:13:12;100994.00;;;3.40
4421;BMP180;11824;51.178;13.546;2024-03-17T06:15:43;101000.00;;;3.60
4421;BMP180;11824;51.178;13.546;2024-03-17T06:18:12;101001.00;;;3.80
4421;BMP180;11824;51.178;13.546;2024-03-17T06:20:42;100999.00;;;4.00
4421;BMP180;11824;51.178;13.546;2024-03-17T06:23:10;101001.00;;;4.20
4421;BMP180;11824;51.178;13.546;2024-03-17T06:25:40;100998.00;;;4.30
4421;BMP180;11824;51.178;13.546;2024-03-17T06:28:08;101001.00;;;4.40
4421;BMP180;11824;51.178;13.546;2024-03-17T06:30:40;101013.00;;;4.50
4421;BMP180;11824;51.178;13.546;2024-03-17T06:33:09;101023.00;;;4.60
4421;BMP180;11824;51.178;13.546;2024-03-17T06:35:37;101016.00;;;4.60
4421;BMP180;11824;51.178;13.546;2024-03-17T06:38:06;101010.00;;;4.70
4421;BMP180;11824;51.178;13.546;2024-03-17T06:40:36;101014.00;;;4.70
4421;BMP180;11824;51.178;13.546;2024-03-17T06:43:05;101009.00;;;4.80
4421;BMP180;11824;51.178;13.546;2024-03-17T06:45:34;101012.00;;;4.80
4421;BMP180;11824;51.178;13.546;2024-03-17T06:48:02;101017.00;;;4.90
4421;BMP180;11824;51.178;13.546;2024-03-17T06:50:30;101027.00;;;5.00
4421;BMP180;11824;51.178;13.546;2024-03-17T06:52:58;101017.00;;;5.00
4421;BMP180;11824;51.178;13.546;2024-03-17T06:55:27;101015.00;;;5.10
4421;BMP180;11824;51.178;13.546;2024-03-17T06:57:55;101027.00;;;5.20
4421;BMP180;11824;51.178;13.546;2024-03-17T07:00:22;101029.00;;;5.20
4421;BMP180;11824;51.178;13.546;2024-03-17T07:02:51;101025.00;;;5.30
4421;BMP180;11824;51.178;13.546;2024-03-17T07:05:19;101034.00;;;5.40
4421;BMP180;11824;51.178;13.546;2024-03-17T07:07:47;101028.00;;;5.40
4421;BMP180;11824;51.178;13.546;2024-03-17T07:10:15;101025.00;;;5.50
4421;BMP180;11824;51.178;13.546;2024-03-17T07:12:44;101044.00;;;5.60
4421;BMP180;11824;51.178;13.546;2024-03-17T07:15:12;101046.00;;;5.70
4421;BMP180;11824;51.178;13.546;2024-03-17T07:17:41;101043.00;;;5.70
4421;BMP180;11824;51.178;13.546;2024-03-17T07:20:09;101039.00;;;5.80
4421;BMP180;11824;51.178;13.546;2024-03-17T07:22:39;101045.00;;;5.90
4421;BMP180;11824;51.178;13.546;2024-03-17T07:25:06;101049.00;;;5.90
4421;BMP180;11824;51.178;13.546;2024-03-17T07:27:34;101048.00;;;6.00
4421;BMP180;11824;51.178;13.546;2024-03-17T07:30:07;101058.00;;;6.00
4421;BMP180;11824;51.178;13.546;2024-03-17T07:32:36;101039.00;;;6.10
4421;BMP180;11824;51.178;13.546;2024-03-17T07:35:04;101044.00;;;6.20
4421;BMP180;11824;51.178;13.546;2024-03-17T07:37:33;101047.00;;;6.20
4421;BMP180;11824;51.178;13.546;2024-03-17T07:40:00;101051.00;;;6.30
4421;BMP180;11824;51.178;13.546;2024-03-17T07:42:33;101050.00;;;6.40
4421;BMP180;11824;51.178;13.546;2024-03-17T07:45:01;101051.00;;;6.40
4421;BMP180;11824;51.178;13.546;2024-03-17T07:47:30;101045.00;;;6.50
4421;BMP180;11824;51.178;13.546;2024-03-17T07:50:02;101057.00;;;6.50
4421;BMP180;11824;51.178;13.546;2024-03-17T07:52:32;101050.00;;;6.60
4421;BMP180;11824;51.178;13.546;2024-03-17T07:54:59;101064.00;;;6.60
4421;BMP180;11824;51.178;13.546;2024-03-17T07:57:28;101064.00;;;6.70
4421;BMP180;11824;51.178;13.546;2024-03-17T07:59:56;101057.00;;;6.70
4421;BMP180;11824;51.178;13.546;2024-03-17T08:02:24;101068.00;;;6.80
4421;BMP180;11824;51.178;13.546;2024-03-17T08:04:53;101055.00;;;6.90
4421;BMP180;11824;51.178;13.546;2024-03-17T08:07:21;101066.00;;;6.90
4421;BMP180;11824;51.178;13.546;2024-03-17T08:09:49;101063.00;;;7.00
4421;BMP180;11824;51.178;13.546;2024-03-17T08:12:16;101059.00;;;7.10
4421;BMP180;11824;51.178;13.546;2024-03-17T08:14:45;101064.00;;;7.10
4421;BMP180;11824;51.178;13.546;2024-03-17T08:17:12;101070.00;;;7.10
4421;BMP180;11824;51.178;13.546;2024-03-17T08:19:40;101077.00;;;7.20
4421;BMP180;11824;51.178;13.546;2024-03-17T08:22:10;101078.00;;;7.20
4421;BMP180;11824;51.178;13.546;2024-03-17T08:24:38;101075.00;;;7.30
4421;BMP180;11824;51.178;13.546;2024-03-17T08:27:05;101079.00;;;7.30
4421;BMP180;11824;51.178;13.546;2024-03-17T08:29:35;101075.00;;;7.30
4421;BMP180;11824;51.178;13.546;2024-03-17T08:32:03;101064.00;;;7.40
4421;BMP180;11824;51.178;13.546;2024-03-17T08:34:30;101062.00;;;7.50
4421;BMP180;11824;51.178;13.546;2024-03-17T08:36:58;101072.00;;;7.60
4421;BMP180;11824;51.178;13.546;2024-03-17T08:39:28;101062.00;;;7.60
4421;BMP180;11824;51.178;13.546;2024-03-17T08:41:55;101059.00;;;7.70
4421;BMP180;11824;51.178;13.546;2024-03-17T08:44:23;101063.00;;;7.80
4421;BMP180;11824;51.178;13.546;2024-03-17T08:46:51;101061.00;;;8.00
4421;BMP180;11824;51.178;13.546;2024-03-17T08:49:18;101061.00;;;8.20
4421;BMP180;11824;51.178;13.546;2024-03-17T08:51:46;101063.00;;;8.40
4421;BMP180;11824;51.178;13.546;2024-03-17T08:54:14;101057.00;;;8.60
4421;BMP180;11824;51.178;13.546;2024-03-17T08:56:43;101051.00;;;8.90
4421;BMP180;11824;51.178;13.546;2024-03-17T08:59:11;101053.00;;;9.00
4421;BMP180;11824;51.178;13.546;2024-03-17T09:01:39;101052.00;;;9.20
4421;BMP180;11824;51.178;13.546;2024-03-17T09:04:06;101056.00;;;9.40
4421;BMP180;11824;51.178;13.546;2024-03-17T09:06:34;101053.00;;;9.60
4421;BMP180;11824;51.178;13.546;2024-03-17T09:09:02;101050.00;;;9.80
4421;BMP180;11824;51.178;13.546;2024-03-17T09:11:30;101048.00;;;9.90
4421;BMP180;11824;51.178;13.546;2024-03-17T09:13:59;101043.00;;;10.00
4421;BMP180;11824;51.178;13.546;2024-03-17T09:16:27;101040.00;;;10.10
4421;BMP180;11824;51.178;13.546;2024-03-17T09:18:56;101048.00;;;10.20
4421;BMP180;11824;51.178;13.546;2024-03-17T09:21:24;101035.00;;;10.30
4421;BMP180;11824;51.178;13.546;2024-03-17T09:23:52;101033.00;;;10.40
4421;BMP180;11824;51.178;13.546;2024-03-17T09:26:20;101033.00;;;10.50
4421;BMP180;11824;51.178;13.546;2024-03-17T09:28:48;101029.00;;;10.50
4421;BMP180;11824;51.178;13.546;2024-03-17T09:31:17;101026.00;;;10.60
4421;BMP180;11824;51.178;13.546;2024-03-17T09:33:46;101026.00;;;10.70
4421;BMP180;11824;51.178;13.546;2024-03-17T09:36:15;101023.00;;;10.80
4421;BMP180;11824;51.178;13.546;2024-03-17T09:38:42;101023.00;;;10.90
4421;BMP180;11824;51.178;13.546;2024-03-17T09:41:19;101019.00;;;11.00
4421;BMP180;11824;51.178;13.546;2024-03-17T09:43:48;101024.00;;;11.10
4421;BMP180;11824;51.178;13.546;2024-03-17T09:46:18;101022.00;;;11.20
4421;BMP180;11824;51.178;13.546;2024-03-17T09:48:47;101023.00;;;11.20
4421;BMP180;11824;51.178;13.546;2024-03-17T09:51:20;101019.00;;;11.30
4421;BMP180;11824;51.178;13.546;2024-03-17T09:53:48;101011.00;;;11.40
4421;BMP180;11824;51.178;13.546;2024-03-17T09:56:18;101015.00;;;11.50
4421;BMP180;11824;51.178;13.546;2024-03-17T09:58:46;101011.00;;;11.50
4421;BMP180;11824;51.178;13.546;2024-03-17T10:01:14;101027.00;;;11.50
4421;BMP180;11824;51.178;13.546;2024-03-17T10:03:44;101010.00;;;11.50
4421;BMP180;11824;51.178;13.546;2024-03-17T10:06:13;101013.00;;;11.50
4421;BMP180;11824;51.178;13.546;2024-03-17T10:08:45;101010.00;;;11.50
4421;BMP180;11824;51.178;13.546;2024-03-17T10:11:14;101008.00;;;11.40
4421;BMP180;11824;51.178;13.546;2024-03-17T10:13:43;101019.00;;;11.40
4421;BMP180;11824;51.178;13.546;2024-03-17T10:16:24;101017.00;;;11.30
4421;BMP180;11824;51.178;13.546;2024-03-17T10:19:07;101018.00;;;11.30
4421;BMP180;11824;51.178;13.546;2024-03-17T10:21:37;101020.00;;;11.30
4421;BMP180;11824;51.178;13.546;2024-03-17T10:24:09;101007.00;;;11.40
4421;BMP180;11824;51.178;13.546;2024-03-17T10:26:41;101010.00;;;11.40
4421;BMP180;11824;51.178;13.546;2024-03-17T10:29:23;101009.00;;;11.40
4421;BMP180;11824;51.178;13.546;2024-03-17T10:31:52;101016.00;;;11.50
4421;BMP180;11824;51.178;13.546;2024-03-17T10:34:23;101016.00;;;11.50
4421;BMP180;11824;51.178;13.546;2024-03-17T10:36:52;101026.00;;;11.60
4421;BMP180;11824;51.178;13.546;2024-03-17T10:39:28;101009.00;;;11.60
4421;BMP180;11824;51.178;13.546;2024-03-17T10:42:01;101016.00;;;11.50
4421;BMP180;11824;51.178;13.546;2024-03-17T10:44:29;101011.00;;;11.50
4421;BMP180;11824;51.178;13.546;2024-03-17T10:46:58;101011.00;;;11.40
4421;BMP180;11824;51.178;13.546;2024-03-17T10:49:30;101013.00;;;11.40
4421;BMP180;11824;51.178;13.546;2024-03-17T10:52:08;101014.00;;;11.40
4421;BMP180;11824;51.178;13.546;2024-03-17T10:54:58;101003.00;;;11.30
4421;BMP180;11824;51.178;13.546;2024-03-17T10:57:45;101009.00;;;11.20
4421;BMP180;11824;51.178;13.546;2024-03-17T11:00:15;100999.00;;;11.10
4421;BMP180;11824;51.178;13.546;2024-03-17T11:02:45;101006.00;;;11.00
4421;BMP180;11824;51.178;13.546;2024-03-17T11:05:18;101001.00;;;10.90
4421;BMP180;11824;51.178;13.546;2024-03-17T11:07:48;101003.00;;;10.80
4421;BMP180;11824;51.178;13.546;2024-03-17T11:10:19;100997.00;;;10.70
4421;BMP180;11824;51.178;13.546;2024-03-17T11:12:48;100999.00;;;10.60
4421;BMP180;11824;51.178;13.546;2024-03-17T11:15:39;100990.00;;;10.50
4421;BMP180;11824;51.178;13.546;2024-03-17T11:18:35;100988.00;;;10.60
4421;BMP180;11824;51.178;13.546;2024-03-17T11:23:59;100997.00;;;10.80
4421;BMP180;11824;51.178;13.546;2024-03-17T11:26:28;100993.00;;;10.80
4421;BMP180;11824;51.178;13.546;2024-03-17T11:28:57;100991.00;;;10.70
4421;BMP180;11824;51.178;13.546;2024-03-17T11:31:48;100978.00;;;10.70
4421;BMP180;11824;51.178;13.546;2024-03-17T11:34:36;100985.00;;;10.80
4421;BMP180;11824;51.178;13.546;2024-03-17T11:37:07;100985.00;;;10.70
4421;BMP180;11824;51.178;13.546;2024-03-17T11:39:55;100984.00;;;10.70
4421;BMP180;11824;51.178;13.546;2024-03-17T11:42:27;100984.00;;;10.70
4421;BMP180;11824;51.178;13.546;2024-03-17T11:45:04;100980.00;;;10.70
4421;BMP180;11824;51.178;13.546;2024-03-17T11:47:40;100976.00;;;10.80
4421;BMP180;11824;51.178;13.546;2024-03-17T11:50:09;100986.00;;;10.80
4421;BMP180;11824;51.178;13.546;2024-03-17T11:52:39;100992.00;;;11.00
4421;BMP180;11824;51.178;13.546;2024-03-17T11:55:17;100986.00;;;11.00
4421;BMP180;11824;51.178;13.546;2024-03-17T11:57:46;100983.00;;;11.00
4421;BMP180;11824;51.178;13.546;2024-03-17T12:00:23;100993.00;;;11.00
4421;BMP180;11824;51.178;13.546;2024-03-17T12:02:51;100979.00;;;11.00
4421;BMP180;11824;51.178;13.546;2024-03-17T12:05:18;100976.00;;;11.00
4421;BMP180;11824;51.178;13.546;2024-03-17T12:07:48;100976.00;;;11.10
4421;BMP180;11824;51.178;13.546;2024-03-17T12:10:16;100954.00;;;11.10
4421;BMP180;11824;51.178;13.546;2024-03-17T12:12:47;100961.00;;;11.20
4421;BMP180;11824;51.178;13.546;2024-03-17T12:15:17;100960.00;;;11.40
4421;BMP180;11824;51.178;13.546;2024-03-17T12:17:46;100952.00;;;11.50
4421;BMP180;11824;51.178;13.546;2024-03-17T12:20:20;100968.00;;;11.60
4421;BMP180;11824;51.178;13.546;2024-03-17T12:22:50;100964.00;;;11.60
4421;BMP180;11824;51.178;13.546;2024-03-17T12:25:19;100959.00;;;11.70
4421;BMP180;11824;51.178;13.546;2024-03-17T12:27:49;100963.00;;;11.70
4421;BMP180;11824;51.178;13.546;2024-03-17T12:30:16;100964.00;;;11.80
4421;BMP180;11824;51.178;13.546;2024-03-17T12:32:45;100961.00;;;12.00
4421;BMP180;11824;51.178;13.546;2024-03-17T12:35:15;100968.00;;;12.10
4421;BMP180;11824;51.178;13.546;2024-03-17T12:37:44;100957.00;;;12.20
4421;BMP180;11824;51.178;13.546;2024-03-17T12:40:22;100963.00;;;12.30
4421;BMP180;11824;51.178;13.546;2024-03-17T12:42:50;100954.00;;;12.30
4421;BMP180;11824;51.178;13.546;2024-03-17T12:45:21;100938.00;;;12.30
4421;BMP180;11824;51.178;13.546;2024-03-17T12:47:50;100936.00;;;12.40
4421;BMP180;11824;51.178;13.546;2024-03-17T12:50:17;100937.00;;;12.40
4421;BMP180;11824;51.178;13.546;2024-03-17T12:52:52;100936.00;;;12.30
4421;BMP180;11824;51.178;13.546;2024-03-17T12:55:21;100942.00;;;12.20
4421;BMP180;11824;51.178;13.546;2024-03-17T12:58:08;100941.00;;;12.00
4421;BMP180;11824;51.178;13.546;2024-03-17T13:01:00;100940.00;;;12.00
4421;BMP180;11824;51.178;13.546;2024-03-17T13:03:30;100938.00;;;11.90
4421;BMP180;11824;51.178;13.546;2024-03-17T13:05:59;100943.00;;;11.90
4421;BMP180;11824;51.178;13.546;2024-03-17T13:08:29;100938.00;;;12.00
4421;BMP180;11824;51.178;13.546;2024-03-17T13:10:59;100938.00;;;12.10
4421;BMP180;11824;51.178;13.546;2024-03-17T13:13:27;100934.00;;;12.10
4421;BMP180;11824;51.178;13.546;2024-03-17T13:15:55;100935.00;;;12.00
4421;BMP180;11824;51.178;13.546;2024-03-17T13:18:22;100933.00;;;12.00
4421;BMP180;11824;51.178;13.546;2024-03-17T13:20:51;100925.00;;;12.10
4421;BMP180;11824;51.178;13.546;2024-03-17T13:23:20;100917.00;;;12.10
4421;BMP180;11824;51.178;13.546;2024-03-17T13:25:50;100922.00;;;12.20
4421;BMP180;11824;51.178;13.546;2024-03-17T13:28:19;100925.00;;;12.30
4421;BMP180;11824;51.178;13.546;2024-03-17T13:30:47;100923.00;;;12.40
4421;BMP180;11824;51.178;13.546;2024-03-17T13:33:15;100918.00;;;12.40
4421;BMP180;11824;51.178;13.546;2024-03-17T13:35:44;100917.00;;;12.40
4421;BMP180;11824;51.178;13.546;2024-03-17T13:38:12;100916.00;;;12.40
4421;BMP180;11824;51.178;13.546;2024-03-17T13:40:41;100920.00;;;12.30
4421;BMP180;11824;51.178;13.546;2024-03-17T13:43:09;100909.00;;;12.30
4421;BMP180;11824;51.178;13.546;2024-03-17T13:45:40;100907.00;;;12.30
4421;BMP180;11824;51.178;13.546;2024-03-17T13:48:09;100916.00;;;12.20
4421;BMP180;11824;51.178;13.546;2024-03-17T13:50:38;100908.00;;;12.10
4421;BMP180;11824;51.178;13.546;2024-03-17T13:53:08;100909.00;;;12.20
4421;BMP180;11824;51.178;13.546;2024-03-17T13:55:36;100903.00;;;12.20
4421;BMP180;11824;51.178;13.546;2024-03-17T13:58:04;100901.00;;;12.30
4421;BMP180;11824;51.178;13.546;2024-03-17T14:00:32;100896.00;;;12.30
4421;BMP180;11824;51.178;13.546;2024-03-17T14:03:05;100883.00;;;12.40
4421;BMP180;11824;51.178;13.546;2024-03-17T14:05:34;100892.00;;;12.40
4421;BMP180;11824;51.178;13.546;2024-03-17T14:08:02;100899.00;;;12.30
4421;BMP180;11824;51.178;13.546;2024-03-17T14:10:31;100885.00;;;12.20
4421;BMP180;11824;51.178;13.546;2024-03-17T14:12:58;100882.00;;;12.20
4421;BMP180;11824;51.178;13.546;2024-03-17T14:15:26;100880.00;;;12.20
4421;BMP180;11824;51.178;13.546;2024-03-17T14:17:54;100880.00;;;12.20
4421;BMP180;11824;51.178;13.546;2024-03-17T14:20:23;100868.00;;;12.20